Time;durP1;ratioP1;P1;durP2;ratioP2;P2;SDS_P1;SDS_P2;PMS_P1;PMS_P2;Temp;Humidity;BMP_temperature;BMP_pressure;BME280_temperature;BME280_humidity;BME280_pressure;Samples;Min_cycle;Max_cycle;Signal;HPM_P1;HPM_P2
2021/08/18 00:01:36;;;;;;;41.92;31.45;;;;;;;22.91;100.00;100601.83;1746291;82;21384;-88
2021/08/18 00:04:04;;;;;;;40.95;31.07;;;;;;;22.83;100.00;100599.34;1724929;82;21019;-88
2021/08/18 00:06:31;;;;;;;101.95;66.47;;;;;;;22.77;100.00;100604.92;1725267;82;21036;-87
2021/08/18 00:08:59;;;;;;;95.07;63.55;;;;;;;22.69;100.00;100601.09;1746680;82;21056;-88
2021/08/18 00:11:27;;;;;;;87.47;59.38;;;;;;;22.60;100.00;100608.41;1746352;82;21049;-87
2021/08/18 00:13:55;;;;;;;78.75;53.63;;;;;;;22.54;100.00;100610.52;1725291;82;21066;-84
2021/08/18 00:16:26;;;;;;;73.28;53.85;;;;;;;22.51;100.00;100610.90;1746099;82;21078;-87
2021/08/18 00:18:56;;;;;;;89.85;62.95;;;;;;;22.52;100.00;100608.56;1746710;82;21007;-86
2021/08/18 00:21:26;;;;;;;110.10;77.35;;;;;;;22.48;100.00;100611.28;1725242;82;20991;-87
2021/08/18 00:23:54;;;;;;;144.93;91.37;;;;;;;22.46;100.00;100610.16;1746355;82;21109;-88
2021/08/18 00:26:27;;;;;;;144.70;92.02;;;;;;;22.46;100.00;100602.20;1746171;82;21035;-84
2021/08/18 00:28:55;;;;;;;141.20;94.07;;;;;;;22.46;100.00;100607.50;1725535;82;20957;-89
2021/08/18 00:31:23;;;;;;;135.40;90.12;;;;;;;22.45;100.00;100605.05;1746287;82;21038;-88
2021/08/18 00:33:50;;;;;;;117.80;80.10;;;;;;;22.40;100.00;100608.77;1746650;82;21082;-88
2021/08/18 00:36:19;;;;;;;128.25;76.25;;;;;;;22.31;100.00;100609.41;1746629;82;21053;-88
2021/08/18 00:38:46;;;;;;;98.20;68.28;;;;;;;22.21;100.00;100608.42;1746557;82;21042;-87
2021/08/18 00:41:13;;;;;;;113.25;80.35;;;;;;;22.16;100.00;100612.14;1725358;82;21038;-85
2021/08/18 00:43:42;;;;;;;130.70;84.45;;;;;;;22.16;100.00;100614.30;1746583;82;21085;-88
2021/08/18 00:46:11;;;;;;;96.28;67.17;;;;;;;22.15;100.00;100606.55;1746577;82;21015;-87
2021/08/18 00:48:38;;;;;;;67.17;51.45;;;;;;;22.11;100.00;100601.30;1725488;82;21140;-89
2021/08/18 00:51:05;;;;;;;59.58;45.88;;;;;;;22.04;100.00;100596.77;1725278;82;21038;-88
2021/08/18 00:53:34;;;;;;;51.05;41.60;;;;;;;21.98;100.00;100599.36;1725414;82;20987;-89
2021/08/18 00:56:02;;;;;;;58.42;45.48;;;;;;;21.89;100.00;100601.34;1725490;82;20976;-88
2021/08/18 00:58:29;;;;;;;63.85;46.10;;;;;;;21.82;100.00;100605.77;1725390;82;21077;-89
2021/08/18 01:00:58;;;;;;;56.42;45.52;;;;;;;21.78;100.00;100601.84;1769878;79;21139;-88
2021/08/18 01:03:25;;;;;;;51.20;43.98;;;;;;;21.74;100.00;100600.91;1756699;80;20986;-89
2021/08/18 01:05:52;;;;;;;51.85;42.38;;;;;;;21.71;100.00;100605.77;1756885;80;21117;-88
2021/08/18 01:08:22;;;;;;;47.95;39.48;;;;;;;21.66;100.00;100606.33;1778774;80;21112;-90
2021/08/18 01:10:50;;;;;;;53.70;41.40;;;;;;;21.63;100.00;100597.94;1779232;80;21046;-88
2021/08/18 01:13:20;;;;;;;47.13;39.65;;;;;;;21.59;100.00;100594.85;1756879;80;21779;-86
2021/08/18 01:15:47;;;;;;;44.98;37.38;;;;;;;21.52;100.00;100601.85;1778801;80;21512;-89
2021/08/18 01:18:16;;;;;;;45.43;39.27;;;;;;;21.46;100.00;100599.96;1779004;80;21438;-88
2021/08/18 01:20:44;;;;;;;46.92;38.63;;;;;;;21.40;100.00;100598.88;1756890;80;21006;-87
2021/08/18 01:23:14;;;;;;;49.53;39.15;;;;;;;21.35;100.00;100596.78;1778764;80;21018;-85
2021/08/18 01:25:45;;;;;;;52.25;39.05;;;;;;;21.30;100.00;100599.19;1779260;80;21006;-88
2021/08/18 01:28:14;;;;;;;48.02;38.73;;;;;;;21.25;100.00;100598.94;1778811;80;22236;-87
2021/08/18 01:30:42;;;;;;;43.42;38.80;;;;;;;21.25;100.00;100591.80;1757187;80;21010;-86
2021/08/18 01:33:14;;;;;;;48.63;39.18;;;;;;;21.26;100.00;100598.73;1757032;80;21011;-86
2021/08/18 01:35:45;;;;;;;44.85;39.70;;;;;;;21.26;100.00;100592.13;1779270;80;21018;-86
2021/08/18 01:38:16;;;;;;;46.42;38.85;;;;;;;21.25;100.00;100594.96;1741013;82;21221;-86
2021/08/18 01:40:44;;;;;;;49.30;40.35;;;;;;;21.24;100.00;100594.64;1740126;82;21529;-89
2021/08/18 01:45:54;;;;;;;50.90;38.33;;;;;;;21.29;100.00;100597.54;1869991;76;22495;-86
2021/08/18 01:48:32;;;;;;;50.52;37.93;;;;;;;21.23;100.00;100595.64;1802428;77;21429;-87
2021/08/18 01:50:57;;;;;;;47.73;40.10;;;;;;;21.22;100.00;100600.62;1804273;78;21006;-87
2021/08/18 01:53:33;;;;;;;47.10;38.80;;;;;;;21.17;100.00;100599.84;1823552;77;21016;-86
2021/08/18 01:56:03;;;;;;;41.95;36.05;;;;;;;21.12;100.00;100593.78;1797266;78;21472;-87
2021/08/18 01:58:34;;;;;;;42.58;36.88;;;;;;;21.07;100.00;100592.73;1764661;77;20895;-87
2021/08/18 02:01:08;;;;;;;40.63;34.88;;;;;;;21.01;100.00;100590.80;1806148;78;21049;-86
2021/08/18 02:03:36;;;;;;;45.08;35.45;;;;;;;21.01;100.00;100594.77;1825717;78;21898;-87
2021/08/18 02:06:04;;;;;;;39.48;35.17;;;;;;;21.02;100.00;100597.25;1826392;78;20866;-88
2021/08/18 02:08:31;;;;;;;38.10;33.35;;;;;;;20.96;100.00;100600.13;1805190;78;20961;-87
2021/08/18 02:11:00;;;;;;;37.55;33.05;;;;;;;20.83;100.00;100592.51;1805536;78;21030;-89
2021/08/18 02:13:27;;;;;;;38.50;33.13;;;;;;;20.74;100.00;100595.77;1826347;78;21045;-88
2021/08/18 02:15:54;;;;;;;53.45;34.48;;;;;;;20.67;100.00;100594.83;1826467;78;21076;-87
2021/08/18 02:18:21;;;;;;;41.88;33.48;;;;;;;20.65;100.00;100587.05;1805374;78;20966;-87
2021/08/18 02:20:51;;;;;;;39.73;32.42;;;;;;;20.70;100.00;100586.02;1806138;78;21009;-87
2021/08/18 02:23:18;;;;;;;41.33;32.28;;;;;;;20.73;100.00;100588.31;1805149;77;21006;-87
2021/08/18 02:25:46;;;;;;;76.28;35.08;;;;;;;20.77;100.00;100580.34;1805614;77;21418;-90
2021/08/18 02:28:14;;;;;;;38.50;33.83;;;;;;;20.82;100.00;100582.92;1805417;78;21013;-89
2021/08/18 02:30:42;;;;;;;48.52;31.87;;;;;;;20.89;100.00;100590.44;1800082;77;21024;-88
2021/08/18 02:33:09;;;;;;;41.02;35.80;;;;;;;20.90;100.00;100581.02;1824154;77;21044;-86
2021/08/18 02:35:38;;;;;;;45.10;33.78;;;;;;;20.87;100.00;100585.34;1829388;77;21345;-87
2021/08/18 02:38:06;;;;;;;40.23;31.75;;;;;;;20.77;100.00;100582.98;1792696;78;21128;-88
2021/08/18 02:40:33;;;;;;;38.33;32.80;;;;;;;20.77;100.00;100584.31;1805677;78;21069;-89
2021/08/18 02:43:01;;;;;;;40.95;33.23;;;;;;;20.77;100.00;100579.50;1804897;78;20990;-86
2021/08/18 02:45:29;;;;;;;40.52;32.73;;;;;;;20.77;100.00;100582.98;1808533;78;21501;-88
2021/08/18 02:47:57;;;;;;;37.80;32.55;;;;;;;20.77;100.00;100580.34;1810242;78;21022;-88
2021/08/18 02:50:26;;;;;;;38.75;32.23;;;;;;;20.76;100.00;100576.05;1810300;77;21539;-89
2021/08/18 02:52:53;;;;;;;37.08;32.30;;;;;;;20.75;100.00;100584.98;1796557;79;21179;-89
2021/08/18 02:55:22;;;;;;;43.52;32.38;;;;;;;20.75;100.00;100584.98;1796554;78;21068;-87
2021/08/18 02:57:49;;;;;;;47.83;34.35;;;;;;;20.77;100.00;100582.98;1796373;79;21042;-85
2021/08/18 03:00:17;;;;;;;54.98;35.68;;;;;;;20.77;100.00;100580.83;1777813;78;21563;-88
2021/08/18 03:02:44;;;;;;;43.98;34.08;;;;;;;20.79;100.00;100586.25;1768077;79;21030;-86
2021/08/18 03:05:13;;;;;;;49.98;33.70;;;;;;;20.85;100.00;100585.22;1812461;77;20974;-86
2021/08/18 03:07:41;;;;;;;38.75;33.98;;;;;;;20.88;100.00;100590.13;1778161;79;21010;-86
2021/08/18 03:10:09;;;;;;;52.70;40.33;;;;;;;20.89;100.00;100589.96;1778071;79;21041;-86
2021/08/18 03:12:37;;;;;;;56.15;42.35;;;;;;;20.84;100.00;100594.96;1778300;79;20986;-85
2021/08/18 03:15:07;;;;;;;66.60;48.08;;;;;;;20.83;100.00;100595.16;1795796;79;20986;-84
2021/08/18 03:17:34;;;;;;;64.42;47.90;;;;;;;20.79;100.00;100592.05;1778260;78;21317;-87
2021/08/18 03:20:05;;;;;;;52.55;40.03;;;;;;;20.80;100.00;100596.34;1796037;78;21013;-86
2021/08/18 03:22:35;;;;;;;50.35;36.90;;;;;;;20.86;100.00;100594.80;1796197;78;21024;-83
2021/08/18 03:25:06;;;;;;;44.35;33.88;;;;;;;20.86;100.00;100592.16;1796150;78;21005;-84
2021/08/18 03:27:35;;;;;;;41.95;34.67;;;;;;;20.80;100.00;100597.16;1778480;79;21511;-85
2021/08/18 03:30:03;;;;;;;43.50;34.65;;;;;;;20.78;100.00;100596.54;1778041;79;21841;-85
2021/08/18 03:32:31;;;;;;;42.20;34.55;;;;;;;20.77;100.00;100594.05;1796302;78;20970;-86
2021/08/18 03:34:58;;;;;;;57.65;35.40;;;;;;;20.72;100.00;100591.92;1779151;78;21663;-87
2021/08/18 03:37:25;;;;;;;46.30;34.58;;;;;;;20.68;100.00;100593.31;1769967;79;21495;-87
2021/08/18 03:39:52;;;;;;;47.25;35.38;;;;;;;20.68;100.00;100595.95;1806627;78;20978;-86
2021/08/18 03:42:21;;;;;;;48.50;36.68;;;;;;;20.67;100.00;100589.02;1809893;78;21923;-85
2021/08/18 03:44:48;;;;;;;53.90;39.13;;;;;;;20.67;100.00;100592.18;1809943;78;21107;-84
2021/08/18 03:47:17;;;;;;;49.27;39.00;;;;;;;20.64;100.00;100593.34;1828834;77;20966;-88
2021/08/18 03:49:44;;;;;;;48.98;39.92;;;;;;;20.65;100.00;100597.15;1828473;77;20950;-85
2021/08/18 03:52:11;;;;;;;60.52;43.80;;;;;;;20.70;100.00;100595.28;1828821;77;21456;-86
2021/08/18 03:54:38;;;;;;;61.65;46.15;;;;;;;20.76;100.00;100591.92;1810019;78;21135;-86
2021/08/18 03:57:05;;;;;;;68.10;49.70;;;;;;;20.83;100.00;100597.80;1810294;78;21069;-86
2021/08/18 03:59:34;;;;;;;66.05;49.60;;;;;;;20.87;100.00;100602.55;1828542;77;20970;-86
2021/08/18 04:02:02;;;;;;;66.07;48.83;;;;;;;20.90;100.00;100604.84;1809961;78;21009;-85
2021/08/18 04:04:29;;;;;;;65.10;50.55;;;;;;;20.93;100.00;100604.97;1809945;78;21081;-86
2021/08/18 04:06:56;;;;;;;66.65;49.67;;;;;;;20.98;100.00;100607.06;1808867;78;21105;-88
2021/08/18 04:09:23;;;;;;;66.67;49.25;;;;;;;21.01;100.00;100607.52;1787162;79;20969;-87
2021/08/18 04:11:51;;;;;;;74.82;48.78;;;;;;;21.06;100.00;100599.83;1790448;78;21037;-86
2021/08/18 04:14:18;;;;;;;92.50;46.58;;;;;;;21.10;100.00;100598.47;1792547;77;21550;-87
2021/08/18 04:16:46;;;;;;;74.05;45.00;;;;;;;21.15;100.00;100606.34;1790509;78;22035;-86
2021/08/18 04:19:15;;;;;;;62.73;44.93;;;;;;;21.19;100.00;100606.30;1810388;78;20994;-84
2021/08/18 04:21:42;;;;;;;50.75;41.30;;;;;;;21.26;100.00;100609.84;1805545;78;20998;-89
2021/08/18 04:24:09;;;;;;;49.60;42.33;;;;;;;21.31;100.00;100607.45;1810178;78;21052;-86
2021/08/18 04:26:36;;;;;;;49.18;43.33;;;;;;;21.35;100.00;100614.00;1810382;78;21069;-87
2021/08/18 04:29:03;;;;;;;48.60;42.38;;;;;;;21.39;100.00;100611.31;1810353;78;20961;-86
2021/08/18 04:31:31;;;;;;;48.52;42.93;;;;;;;21.42;100.00;100608.30;1810113;78;21073;-86
2021/08/18 04:33:58;;;;;;;52.75;42.90;;;;;;;21.43;100.00;100604.62;1809976;77;21018;-85
2021/08/18 04:36:26;;;;;;;48.75;43.23;;;;;;;21.47;100.00;100609.55;1828384;77;21499;-87
2021/08/18 04:38:57;;;;;;;50.10;43.48;;;;;;;21.52;100.00;100605.83;1804350;78;21222;-87
2021/08/18 04:41:24;;;;;;;48.35;42.70;;;;;;;21.56;100.00;100611.08;1806516;78;20914;-87
2021/08/18 04:43:52;;;;;;;52.15;43.42;;;;;;;21.61;100.00;100602.60;1799773;78;21099;-88
2021/08/18 04:46:19;;;;;;;54.93;45.03;;;;;;;21.65;100.00;100607.34;1805513;78;21461;-88
2021/08/18 04:48:46;;;;;;;55.60;44.88;;;;;;;21.69;100.00;100605.12;1782290;77;21013;-86
2021/08/18 04:51:13;;;;;;;52.53;44.63;;;;;;;21.71;100.00;100599.95;1782078;79;20986;-86
2021/08/18 04:53:41;;;;;;;52.35;43.17;;;;;;;21.74;100.00;100603.56;1781933;79;20976;-87
2021/08/18 04:56:10;;;;;;;53.05;46.60;;;;;;;21.81;100.00;100598.81;1813749;77;21107;-86
2021/08/18 04:58:37;;;;;;;57.75;45.17;;;;;;;21.87;100.00;100596.72;1787304;78;21018;-86
2021/08/18 05:01:04;;;;;;;50.35;44.58;;;;;;;21.93;100.00;100593.30;1804582;78;21417;-86
2021/08/18 05:03:31;;;;;;;57.80;48.15;;;;;;;22.02;100.00;100594.01;1798313;79;21460;-86
2021/08/18 05:05:58;;;;;;;56.80;47.75;;;;;;;22.10;100.00;100593.88;1785472;78;21061;-87
2021/08/18 05:08:25;;;;;;;62.05;47.83;;;;;;;22.17;100.00;100596.06;1802033;77;21180;-87
2021/08/18 05:10:52;;;;;;;62.67;51.80;;;;;;;22.26;100.00;100587.97;1804760;78;20970;-86
2021/08/18 05:13:19;;;;;;;63.48;52.62;;;;;;;22.36;100.00;100589.25;1804718;78;21588;-89
2021/08/18 05:15:48;;;;;;;105.50;58.40;;;;;;;22.47;100.00;100587.12;1825363;77;21666;-87
2021/08/18 05:18:15;;;;;;;64.80;52.33;;;;;;;22.58;100.00;100589.20;1805182;78;20934;-84
2021/08/18 05:20:44;;;;;;;76.75;62.75;;;;;;;22.72;100.00;100587.94;1824538;78;20994;-85
2021/08/18 05:23:11;;;;;;;82.35;64.62;;;;;;;22.84;100.00;100583.73;1804879;78;20935;-88
2021/08/18 05:25:42;;;;;;;86.17;63.70;;;;;;;22.96;100.00;100581.33;1795458;78;20950;-86
2021/08/18 05:28:13;;;;;;;82.27;67.05;;;;;;;23.05;100.00;100581.47;1772611;80;21032;-85
2021/08/18 05:30:37;;;;;;;88.67;68.05;;;;;;;23.13;100.00;100578.64;1769638;78;21076;-88
2021/08/18 05:33:06;;;;;;;86.45;67.97;;;;;;;23.22;100.00;100577.97;1792838;78;21033;-87
2021/08/18 05:35:33;;;;;;;80.03;62.27;;;;;;;23.33;100.00;100581.07;1792680;78;21037;-83
2021/08/18 05:38:00;;;;;;;72.08;58.65;;;;;;;23.41;100.00;100578.23;1805777;77;21912;-86
2021/08/18 05:40:29;;;;;;;72.03;60.08;;;;;;;23.49;100.00;100575.38;1823160;77;21467;-86
2021/08/18 05:42:56;;;;;;;76.00;54.30;;;;;;;23.57;100.00;100566.38;1784807;78;21089;-86
2021/08/18 05:45:23;;;;;;;78.87;55.48;;;;;;;23.66;100.00;100573.67;1804757;78;21788;-84
2021/08/18 05:47:51;;;;;;;61.90;49.65;;;;;;;23.72;100.00;100573.66;1825338;78;21057;-88
2021/08/18 05:50:17;;;;;;;63.40;46.10;;;;;;;23.79;100.00;100574.99;1804327;78;20994;-87
2021/08/18 05:52:44;;;;;;;63.52;45.73;;;;;;;23.86;100.00;100573.67;1804701;78;21006;-85
2021/08/18 05:55:12;;;;;;;57.70;44.93;;;;;;;23.90;100.00;100574.89;1785354;79;21033;-87
2021/08/18 05:57:39;;;;;;;62.40;45.90;;;;;;;23.96;100.00;100574.09;1755720;80;21695;-85
2021/08/18 06:00:07;;;;;;;65.80;48.55;;;;;;;24.01;100.00;100574.31;1755554;79;21688;-86
2021/08/18 06:02:34;;;;;;;62.27;46.88;;;;;;;24.03;100.00;100576.77;1756916;77;21531;-86
2021/08/18 06:05:04;;;;;;;59.93;47.20;;;;;;;24.05;100.00;100568.08;1815622;77;21033;-87
2021/08/18 06:07:31;;;;;;;54.65;44.23;;;;;;;24.08;100.00;100568.48;1818183;78;21017;-87
2021/08/18 06:09:58;;;;;;;59.08;46.53;;;;;;;24.15;100.00;100564.49;1778331;78;21784;-86
2021/08/18 06:12:25;;;;;;;56.25;46.30;;;;;;;24.24;100.00;100560.56;1825221;77;21397;-86
2021/08/18 06:14:53;;;;;;;61.53;46.48;;;;;;;24.34;100.00;100560.66;1802640;78;20981;-87
2021/08/18 06:17:22;;;;;;;53.35;44.93;;;;;;;24.45;100.00;100558.70;1825153;77;21485;-88
2021/08/18 06:19:51;;;;;;;60.85;44.55;;;;;;;24.53;100.00;100550.48;1825364;78;21022;-86
2021/08/18 06:22:18;;;;;;;56.88;43.65;;;;;;;24.65;100.00;100543.16;1820334;78;21137;-86
2021/08/18 06:24:50;;;;;;;53.63;41.98;;;;;;;24.78;100.00;100542.33;1808601;77;21096;-87
2021/08/18 06:27:19;;;;;;;49.27;39.03;;;;;;;24.93;100.00;100538.87;1805746;78;21544;-87
2021/08/18 06:29:47;;;;;;;45.05;38.15;;;;;;;25.08;100.00;100537.27;1775011;79;21037;-86
2021/08/18 06:32:14;;;;;;;39.78;35.33;;;;;;;25.21;100.00;100535.05;1803914;77;21040;-87
2021/08/18 06:34:41;;;;;;;44.53;35.00;;;;;;;25.34;100.00;100535.48;1785085;78;22365;-84
2021/08/18 06:37:10;;;;;;;37.85;32.73;;;;;;;25.44;100.00;100527.83;1804707;78;20990;-84
2021/08/18 06:39:40;;;;;;;31.00;27.70;;;;;;;25.57;100.00;100528.78;1822479;77;21579;-86
2021/08/18 06:42:08;;;;;;;31.07;27.17;;;;;;;25.70;100.00;100532.66;1789754;78;21029;-87
2021/08/18 06:44:35;;;;;;;32.83;28.45;;;;;;;25.81;100.00;100530.62;1808907;77;21401;-87
2021/08/18 06:47:02;;;;;;;30.92;27.73;;;;;;;25.91;100.00;100522.65;1819270;77;21807;-85
2021/08/18 06:49:30;;;;;;;37.38;29.05;;;;;;;25.99;100.00;100527.17;1789442;77;21028;-87
2021/08/18 06:51:57;;;;;;;35.83;26.20;;;;;;;26.08;100.00;100520.25;1712504;80;21081;-86
2021/08/18 06:54:24;;;;;;;30.65;27.30;;;;;;;26.17;100.00;100517.59;1748941;80;21520;-86
2021/08/18 06:56:51;;;;;;;29.65;24.75;;;;;;;26.28;100.00;100515.50;1716974;82;21611;-87
2021/08/18 06:59:19;;;;;;;28.90;25.30;;;;;;;26.40;100.00;100508.91;1716619;82;22065;-86
2021/08/18 07:01:46;;;;;;;27.52;23.65;;;;;;;26.50;100.00;100508.40;1716443;82;20947;-87
2021/08/18 07:04:14;;;;;;;26.82;23.98;;;;;;;26.62;100.00;100507.13;1743276;82;21497;-85
2021/08/18 07:06:41;;;;;;;28.10;24.20;;;;;;;26.71;100.00;100501.77;1716854;82;21527;-87
2021/08/18 07:09:09;;;;;;;34.15;25.00;;;;;;;26.85;100.00;100496.27;1744374;81;21054;-90
2021/08/18 07:11:36;;;;;;;33.67;25.45;;;;;;;26.98;100.00;100492.61;1716961;82;21832;-88
2021/08/18 07:14:05;;;;;;;28.23;23.95;;;;;;;27.08;100.00;100495.02;1744323;81;21559;-85
2021/08/18 07:16:35;;;;;;;26.70;23.80;;;;;;;27.17;100.00;100486.13;1716715;82;21013;-89
2021/08/18 07:19:04;;;;;;;30.02;24.67;;;;;;;27.26;100.00;100489.31;1744834;81;21433;-87
2021/08/18 07:21:33;;;;;;;33.28;26.30;;;;;;;27.34;100.00;100486.30;1717878;82;21042;-87
2021/08/18 07:24:00;;;;;;;36.08;26.42;;;;;;;27.44;100.00;100479.61;1744575;81;21157;-87
2021/08/18 07:26:27;;;;;;;34.13;27.48;;;;;;;27.57;100.00;100486.06;1716768;81;21517;-85
2021/08/18 07:28:56;;;;;;;39.45;28.05;;;;;;;27.70;100.00;100481.01;1658533;82;21065;-86
2021/08/18 07:31:26;;;;;;;33.60;27.85;;;;;;;27.81;100.00;100478.03;1716880;82;21085;-89
2021/08/18 07:33:54;;;;;;;36.63;27.55;;;;;;;27.94;100.00;100475.10;1717195;82;21509;-86
2021/08/18 07:36:21;;;;;;;29.63;24.45;;;;;;;28.08;100.00;100473.56;1716823;81;21941;-89
2021/08/18 07:38:49;;;;;;;33.02;26.27;;;;;;;28.20;100.00;100470.86;1716875;82;21512;-87
2021/08/18 07:41:16;;;;;;;33.92;27.80;;;;;;;28.30;100.00;100473.72;1692964;82;21579;-88
2021/08/18 07:43:43;;;;;;;33.38;26.65;;;;;;;28.40;100.00;100468.58;1744866;82;21093;-88
2021/08/18 07:46:10;;;;;;;33.95;26.95;;;;;;;28.48;100.00;100468.20;1719442;82;21058;-85
2021/08/18 07:48:37;;;;;;;33.65;26.00;;;;;;;28.57;100.00;100465.95;1724686;82;21097;-87
2021/08/18 07:51:04;;;;;;;31.90;24.65;;;;;;;28.67;100.00;100466.69;1724588;82;21045;-88
2021/08/18 07:53:32;;;;;;;37.20;25.65;;;;;;;28.76;100.00;100456.41;1724411;82;21588;-89
2021/08/18 07:56:00;;;;;;;32.20;23.65;;;;;;;28.87;100.00;100459.56;1748176;82;20966;-87
2021/08/18 07:58:27;;;;;;;33.65;23.40;;;;;;;28.98;100.00;100454.36;1748174;82;21488;-87
2021/08/18 08:00:54;;;;;;;33.55;24.23;;;;;;;29.05;100.00;100457.19;1724603;82;21089;-87
2021/08/18 08:03:21;;;;;;;36.63;23.70;;;;;;;29.14;100.00;100456.24;1724571;82;21429;-88
2021/08/18 08:05:48;;;;;;;30.08;23.92;;;;;;;29.24;100.00;100456.95;1725125;82;21080;-87
2021/08/18 08:08:16;;;;;;;34.13;24.47;;;;;;;29.31;100.00;100453.61;1726473;82;21501;-86
2021/08/18 08:10:44;;;;;;;35.08;25.00;;;;;;;29.35;99.38;100449.37;1727023;82;20961;-86
2021/08/18 08:13:11;;;;;;;33.15;24.05;;;;;;;29.41;99.87;100444.91;1726663;82;21077;-85
2021/08/18 08:15:40;;;;;;;31.10;23.05;;;;;;;29.50;100.00;100441.27;1726442;82;21081;-88
2021/08/18 08:18:11;;;;;;;29.70;22.42;;;;;;;29.59;98.00;100438.45;1721874;82;21108;-86
2021/08/18 08:20:39;;;;;;;28.80;22.87;;;;;;;29.67;96.01;100436.69;1726748;82;21009;-86
2021/08/18 08:23:06;;;;;;;33.18;24.70;;;;;;;29.78;89.90;100433.61;1726453;82;22202;-85
2021/08/18 08:25:33;;;;;;;30.57;23.90;;;;;;;29.85;90.77;100430.20;1726422;82;21104;-87
2021/08/18 08:28:02;;;;;;;34.85;24.80;;;;;;;29.92;89.02;100436.77;1726477;82;21045;-87
2021/08/18 08:30:29;;;;;;;31.35;23.52;;;;;;;29.96;92.64;100428.52;1750419;82;21523;-89
2021/08/18 08:32:57;;;;;;;30.88;23.60;;;;;;;30.04;85.04;100423.23;1726532;82;21033;-88
2021/08/18 08:35:24;;;;;;;29.07;22.90;;;;;;;30.11;85.35;100417.14;1726860;82;21030;-86
2021/08/18 08:37:51;;;;;;;32.75;23.15;;;;;;;30.16;79.52;100411.84;1750355;82;21088;-87
2021/08/18 08:40:19;;;;;;;24.82;19.90;;;;;;;30.23;74.74;100410.83;1726776;82;21023;-88
2021/08/18 08:42:46;;;;;;;28.23;20.52;;;;;;;30.31;69.92;100410.38;1750341;80;21076;-87
2021/08/18 08:45:15;;;;;;;33.08;21.17;;;;;;;30.44;65.35;100412.66;1703585;82;21088;-86
2021/08/18 08:47:42;;;;;;;27.90;20.00;;;;;;;30.60;66.44;100404.27;1704886;81;21958;-88
2021/08/18 08:50:13;;;;;;;29.63;19.75;;;;;;;30.73;65.22;100400.86;1755290;80;21137;-86
2021/08/18 08:52:41;;;;;;;25.15;20.82;;;;;;;30.88;66.30;100404.22;1754643;80;21046;-86
2021/08/18 08:55:10;;;;;;;26.68;20.95;;;;;;;31.03;59.91;100402.17;1768400;79;21065;-88
2021/08/18 08:57:50;;;;;;;33.60;21.77;;;;;;;31.11;55.99;100401.72;1742006;81;21421;-86
2021/08/18 09:00:20;;;;;;;24.65;20.32;;;;;;;31.13;54.04;100395.02;1767976;79;21073;-93
2021/08/18 09:03:25;;;;;;;;;;;;;;;;;;;;;
2021/08/18 09:05:41;;;;;;;24.32;20.40;;;;;;;31.25;55.20;100395.37;1751795;79;20994;-88
2021/08/18 09:08:15;;;;;;;24.85;20.72;;;;;;;31.29;54.04;100373.59;1768665;79;21496;-87
2021/08/18 09:11:02;;;;;;;28.65;20.17;;;;;;;31.37;52.10;100384.41;1742341;81;21054;-87
2021/08/18 09:13:39;;;;;;;27.52;20.97;;;;;;;31.43;49.82;100380.16;1742517;80;21009;-88
2021/08/18 09:16:22;;;;;;;30.30;20.70;;;;;;;31.50;49.12;100373.72;1710515;80;21093;-88
2021/08/18 09:19:08;;;;;;;;;;;;;;;;;;;;;
2021/08/18 09:21:55;;;;;;;29.65;21.05;;;;;;;31.67;49.46;100375.72;1704949;82;21576;-93
2021/08/18 09:24:39;;;;;;;;;;;;;;;;;;;;;
2021/08/18 09:27:08;;;;;;;24.43;18.15;;;;;;;31.91;49.60;100365.30;1644777;83;21089;-89
2021/08/18 09:29:46;;;;;;;26.95;19.67;;;;;;;32.01;45.87;100355.64;1766655;80;21786;-88
2021/08/18 09:32:28;;;;;;;49.25;22.90;;;;;;;32.05;46.29;100358.09;1769531;80;21021;-94
2021/08/18 09:35:06;;;;;;;36.80;21.23;;;;;;;32.13;46.39;100356.74;1753229;79;21033;-90
2021/08/18 09:37:38;;;;;;;30.68;19.87;;;;;;;32.19;44.45;100354.33;1694941;83;21544;-92
2021/08/18 09:40:29;;;;;;;;;;;;;;;;;;;;;
2021/08/18 09:43:20;;;;;;;;;;;;;;;;;;;;;
2021/08/18 09:45:44;;;;;;;;;;;;;;;;;;;;;
2021/08/18 09:48:16;;;;;;;23.07;18.62;;;;;;;32.39;42.66;100349.02;1528404;91;21653;-87
2021/08/18 09:58:45;;;;;;;;;;;;;;;;;;;;;
2021/08/18 10:01:21;;;;;;;31.50;19.07;;;;;;;32.55;39.46;100338.23;1521227;91;21152;-87
2021/08/18 10:03:52;;;;;;;25.68;17.75;;;;;;;32.55;39.97;100334.99;1573083;85;21026;-88
2021/08/18 10:06:20;;;;;;;24.63;17.27;;;;;;;32.59;38.65;100337.95;1622059;86;21951;-89
2021/08/18 10:20:02;;;;;;;;;;;;;;;;;;;;;
2021/08/18 10:22:31;;;;;;;18.57;13.85;;;;;;;32.94;32.01;100325.56;1407643;100;21691;-88
2021/08/18 10:25:19;;;;;;;22.93;14.58;;;;;;;33.00;32.01;100329.86;1512698;88;21678;-87
2021/08/18 10:27:48;;;;;;;22.70;13.48;;;;;;;33.05;32.40;100325.55;1700295;82;21147;-88
2021/08/18 10:30:23;;;;;;;21.55;15.18;;;;;;;33.11;32.79;100324.45;1770061;79;21496;-88
2021/08/18 10:33:04;;;;;;;;;;;;;;;;;;;;;
2021/08/18 10:35:40;;;;;;;26.37;14.40;;;;;;;33.26;32.25;100319.00;1723964;80;22050;-89
2021/08/18 10:38:31;;;;;;;22.55;14.60;;;;;;;33.30;31.73;100317.36;1741538;80;20975;-88
2021/08/18 10:41:00;;;;;;;19.00;13.32;;;;;;;33.42;32.25;100312.23;1769002;79;21172;-87
2021/08/18 10:43:59;;;;;;;19.52;13.68;;;;;;;33.49;30.77;100308.69;1743108;80;20982;-87
2021/08/18 10:46:46;;;;;;;;;;;;;;;;;;;;;
2021/08/18 10:49:15;;;;;;;;;;;;;;;;;;;;;
2021/08/18 10:51:50;;;;;;;21.75;13.03;;;;;;;33.62;30.35;100301.88;1788005;78;21069;-90
2021/08/18 10:54:44;;;;;;;;;;;;;;;;;;;;;
2021/08/18 11:03:33;;;;;;;;;;;;;;;;;;;;;
2021/08/18 11:06:08;;;;;;;;;;;;;;;;;;;;;
2021/08/18 11:08:50;;;;;;;22.07;13.65;;;;;;;33.92;31.03;100287.96;1288716;107;21216;-93
2021/08/18 11:12:55;;;;;;;18.95;14.20;;;;;;;34.00;30.52;100283.88;1323116;105;21267;-89
2021/08/18 11:15:41;;;;;;;;;;;;;;;;;;;;;
2021/08/18 11:18:24;;;;;;;;;;;;;;;;;;;;;
2021/08/18 11:21:05;;;;;;;;;;;;;;;;;;;;;
2021/08/18 11:24:17;;;;;;;19.95;13.75;;;;;;;34.13;30.60;100270.52;1341737;103;21117;-93
2021/08/18 11:26:51;;;;;;;25.30;15.35;;;;;;;34.19;31.11;100265.88;1381589;102;21181;-92
2021/08/18 11:29:22;;;;;;;22.07;15.65;;;;;;;34.24;30.77;100266.39;1451459;96;21141;-87
2021/08/18 11:31:55;;;;;;;20.50;15.53;;;;;;;34.25;30.82;100272.85;1487055;93;21140;-89
2021/08/18 11:34:29;;;;;;;;;;;;;;;34.26;30.74;100269.06;1577273;85;20974;-93
2021/08/18 11:37:23;;;;;;;;;;;;;;;;;;;;;
2021/08/18 11:40:00;;;;;;;;;;;;;;;;;;;;;
2021/08/18 11:45:17;;;;;;;;;;;;;;;;;;;;;
2021/08/18 11:50:36;;;;;;;;;;;;;;;;;;;;;
2021/08/18 11:53:27;;;;;;;;;;;;;;;;;;;;;
2021/08/18 11:55:37;;;;;;;23.32;14.55;;;;;;;34.54;30.01;100242.38;1303359;108;21223;-91
2021/08/18 11:58:27;;;;;;;;;;;;;;;;;;;;;
2021/08/18 12:01:17;;;;;;;;;;;;;;;;;;;;;
2021/08/18 12:39:45;;;;;;;;;;;;;;;;;;;;;
2021/08/18 12:43:47;;;;;;;;;;;;;;;;;;;;;
2021/08/18 12:55:35;;;;;;;;;;;;;;;;;;;;;
2021/08/18 13:03:37;;;;;;;;;;;;;;;;;;;;;
2021/08/18 13:06:50;;;;;;;;;;;;;;;;;;;;;
2021/08/18 13:16:10;;;;;;;;;;;;;;;;;;;;;
2021/08/18 13:28:40;;;;;;;;;;;;;;;;;;;;;
2021/08/18 13:51:29;;;;;;;;;;;;;;;;;;;;;
2021/08/18 13:54:48;;;;;;;;;;;;;;;;;;;;;
2021/08/18 14:01:19;;;;;;;;;;;;;;;;;;;;;
2021/08/18 14:10:22;;;;;;;;;;;;;;;;;;;;;
2021/08/18 14:13:18;;;;;;;;;;;;;;;;;;;;;
2021/08/18 14:16:45;;;;;;;;;;;;;;;;;;;;;
2021/08/18 14:20:18;;;;;;;;;;;;;;;;;;;;;
2021/08/18 14:23:28;;;;;;;;;;;;;;;;;;;;;
2021/08/18 14:27:00;;;;;;;;;;;;;;;;;;;;;
2021/08/18 14:31:03;;;;;;;;;;;;;;;;;;;;;
2021/08/18 14:36:26;;;;;;;;;;;;;;;;;;;;;
2021/08/18 14:48:17;;;;;;;;;;;;;;;;;;;;;